sensor_id;sensor_type;location;lat;lon;timestamp;P1;durP1;ratioP1;P2;durP2;ratioP2
32250;SDS011;41295;48.518;9.206;2022-09-11T00:00:34;1.45;;;1.00;;
32250;SDS011;41295;48.518;9.206;2022-09-11T00:02:37;5.15;;;1.00;;
32250;SDS011;41295;48.518;9.206;2022-09-11T00:04:41;3.80;;;0.80;;
32250;SDS011;41295;48.518;9.206;2022-09-11T00:06:43;2.92;;;1.00;;
32250;SDS011;41295;48.518;9.206;2022-09-11T00:08:46;2.00;;;0.93;;
32250;SDS011;41295;48.518;9.206;2022-09-11T00:10:49;4.38;;;1.35;;
32250;SDS011;41295;48.518;9.206;2022-09-11T00:12:52;1.75;;;1.05;;
32250;SDS011;41295;48.518;9.206;2022-09-11T00:14:58;2.90;;;1.00;;
32250;SDS011;41295;48.518;9.206;2022-09-11T00:17:01;5.65;;;1.25;;
32250;SDS011;41295;48.518;9.206;2022-09-11T00:19:04;3.90;;;1.17;;
32250;SDS011;41295;48.518;9.206;2022-09-11T00:21:09;4.40;;;1.17;;
32250;SDS011;41295;48.518;9.206;2022-09-11T00:23:12;2.80;;;1.00;;
32250;SDS011;41295;48.518;9.206;2022-09-11T00:25:17;1.25;;;0.88;;
32250;SDS011;41295;48.518;9.206;2022-09-11T00:27:20;5.38;;;1.50;;
32250;SDS011;41295;48.518;9.206;2022-09-11T00:29:22;8.07;;;1.20;;
32250;SDS011;41295;48.518;9.206;2022-09-11T00:31:25;3.70;;;1.20;;
32250;SDS011;41295;48.518;9.206;2022-09-11T00:33:30;2.22;;;1.00;;
32250;SDS011;41295;48.518;9.206;2022-09-11T00:35:33;2.63;;;1.10;;
32250;SDS011;41295;48.518;9.206;2022-09-11T00:37:37;2.50;;;1.00;;
32250;SDS011;41295;48.518;9.206;2022-09-11T00:39:40;2.65;;;1.45;;
32250;SDS011;41295;48.518;9.206;2022-09-11T00:41:43;1.60;;;1.15;;
32250;SDS011;41295;48.518;9.206;2022-09-11T00:43:50;5.72;;;1.25;;
32250;SDS011;41295;48.518;9.206;2022-09-11T00:45:56;2.85;;;0.95;;
32250;SDS011;41295;48.518;9.206;2022-09-11T00:48:01;6.00;;;1.15;;
32250;SDS011;41295;48.518;9.206;2022-09-11T00:50:07;4.65;;;0.93;;
32250;SDS011;41295;48.518;9.206;2022-09-11T00:52:14;3.70;;;0.95;;
32250;SDS011;41295;48.518;9.206;2022-09-11T00:54:22;2.80;;;1.00;;
32250;SDS011;41295;48.518;9.206;2022-09-11T00:56:28;5.15;;;1.45;;
32250;SDS011;41295;48.518;9.206;2022-09-11T00:58:34;1.90;;;0.98;;
32250;SDS011;41295;48.518;9.206;2022-09-11T01:00:41;3.75;;;1.20;;
32250;SDS011;41295;48.518;9.206;2022-09-11T01:02:46;5.15;;;0.90;;
32250;SDS011;41295;48.518;9.206;2022-09-11T01:04:50;3.97;;;1.00;;
32250;SDS011;41295;48.518;9.206;2022-09-11T01:06:54;7.80;;;1.30;;
32250;SDS011;41295;48.518;9.206;2022-09-11T01:08:58;3.22;;;0.95;;
32250;SDS011;41295;48.518;9.206;2022-09-11T01:11:03;3.38;;;1.02;;
32250;SDS011;41295;48.518;9.206;2022-09-11T01:13:21;3.72;;;1.15;;
32250;SDS011;41295;48.518;9.206;2022-09-11T01:15:34;2.47;;;0.90;;
32250;SDS011;41295;48.518;9.206;2022-09-11T01:17:44;3.70;;;1.20;;
32250;SDS011;41295;48.518;9.206;2022-09-11T01:20:08;5.35;;;1.05;;
32250;SDS011;41295;48.518;9.206;2022-09-11T01:22:44;3.45;;;0.98;;
32250;SDS011;41295;48.518;9.206;2022-09-11T01:25:02;3.10;;;1.00;;
32250;SDS011;41295;48.518;9.206;2022-09-11T01:27:28;4.13;;;1.45;;
32250;SDS011;41295;48.518;9.206;2022-09-11T01:29:40;4.03;;;1.10;;
32250;SDS011;41295;48.518;9.206;2022-09-11T01:33:57;2.03;;;0.88;;
32250;SDS011;41295;48.518;9.206;2022-09-11T01:36:06;2.63;;;1.20;;
32250;SDS011;41295;48.518;9.206;2022-09-11T01:38:13;5.95;;;1.00;;
32250;SDS011;41295;48.518;9.206;2022-09-11T01:40:20;6.38;;;1.10;;
32250;SDS011;41295;48.518;9.206;2022-09-11T01:42:28;4.97;;;1.73;;
32250;SDS011;41295;48.518;9.206;2022-09-11T01:44:36;4.78;;;1.10;;
32250;SDS011;41295;48.518;9.206;2022-09-11T01:46:43;3.17;;;1.27;;
32250;SDS011;41295;48.518;9.206;2022-09-11T01:48:51;2.17;;;0.98;;
32250;SDS011;41295;48.518;9.206;2022-09-11T01:50:58;2.47;;;0.95;;
32250;SDS011;41295;48.518;9.206;2022-09-11T01:53:04;2.33;;;0.98;;
32250;SDS011;41295;48.518;9.206;2022-09-11T01:55:11;6.50;;;1.10;;
32250;SDS011;41295;48.518;9.206;2022-09-11T01:57:19;5.65;;;1.10;;
32250;SDS011;41295;48.518;9.206;2022-09-11T01:59:29;2.88;;;1.00;;
32250;SDS011;41295;48.518;9.206;2022-09-11T02:01:38;6.77;;;1.50;;
32250;SDS011;41295;48.518;9.206;2022-09-11T02:03:48;3.35;;;1.20;;
32250;SDS011;41295;48.518;9.206;2022-09-11T02:05:55;7.53;;;1.30;;
32250;SDS011;41295;48.518;9.206;2022-09-11T02:08:02;3.03;;;1.33;;
32250;SDS011;41295;48.518;9.206;2022-09-11T02:10:10;1.48;;;1.00;;
32250;SDS011;41295;48.518;9.206;2022-09-11T02:12:17;5.68;;;1.42;;
32250;SDS011;41295;48.518;9.206;2022-09-11T02:14:26;5.93;;;1.50;;
32250;SDS011;41295;48.518;9.206;2022-09-11T02:16:38;3.25;;;1.38;;
32250;SDS011;41295;48.518;9.206;2022-09-11T02:18:51;3.58;;;1.65;;
32250;SDS011;41295;48.518;9.206;2022-09-11T02:21:00;4.03;;;1.60;;
32250;SDS011;41295;48.518;9.206;2022-09-11T02:23:02;2.65;;;1.02;;
32250;SDS011;41295;48.518;9.206;2022-09-11T02:25:07;4.45;;;1.70;;
32250;SDS011;41295;48.518;9.206;2022-09-11T02:27:15;3.58;;;1.20;;
32250;SDS011;41295;48.518;9.206;2022-09-11T02:29:20;5.82;;;1.50;;
32250;SDS011;41295;48.518;9.206;2022-09-11T02:31:25;5.57;;;1.77;;
32250;SDS011;41295;48.518;9.206;2022-09-11T02:33:29;3.58;;;1.40;;
32250;SDS011;41295;48.518;9.206;2022-09-11T02:35:35;2.03;;;1.00;;
32250;SDS011;41295;48.518;9.206;2022-09-11T02:42:43;4.55;;;1.20;;
32250;SDS011;41295;48.518;9.206;2022-09-11T02:44:59;1.38;;;1.27;;
32250;SDS011;41295;48.518;9.206;2022-09-11T02:47:14;8.45;;;1.70;;
32250;SDS011;41295;48.518;9.206;2022-09-11T02:49:29;3.95;;;1.90;;
32250;SDS011;41295;48.518;9.206;2022-09-11T02:51:42;3.72;;;1.45;;
32250;SDS011;41295;48.518;9.206;2022-09-11T02:53:57;6.43;;;1.85;;
32250;SDS011;41295;48.518;9.206;2022-09-11T02:56:08;4.47;;;1.95;;
32250;SDS011;41295;48.518;9.206;2022-09-11T02:58:16;5.45;;;2.15;;
32250;SDS011;41295;48.518;9.206;2022-09-11T03:00:23;5.70;;;1.90;;
32250;SDS011;41295;48.518;9.206;2022-09-11T03:02:28;6.80;;;1.98;;
32250;SDS011;41295;48.518;9.206;2022-09-11T03:04:31;6.50;;;1.95;;
32250;SDS011;41295;48.518;9.206;2022-09-11T03:06:35;5.47;;;2.20;;
32250;SDS011;41295;48.518;9.206;2022-09-11T03:08:37;5.55;;;2.17;;
32250;SDS011;41295;48.518;9.206;2022-09-11T03:10:41;5.20;;;1.90;;
32250;SDS011;41295;48.518;9.206;2022-09-11T03:12:46;6.93;;;2.45;;
32250;SDS011;41295;48.518;9.206;2022-09-11T03:14:49;13.57;;;2.88;;
32250;SDS011;41295;48.518;9.206;2022-09-11T03:16:52;7.65;;;2.20;;
32250;SDS011;41295;48.518;9.206;2022-09-11T03:18:57;6.00;;;3.03;;
32250;SDS011;41295;48.518;9.206;2022-09-11T03:21:00;7.38;;;2.60;;
32250;SDS011;41295;48.518;9.206;2022-09-11T03:23:03;7.25;;;2.30;;
32250;SDS011;41295;48.518;9.206;2022-09-11T03:25:11;6.55;;;2.10;;
32250;SDS011;41295;48.518;9.206;2022-09-11T03:27:15;5.68;;;2.30;;
32250;SDS011;41295;48.518;9.206;2022-09-11T03:29:18;7.75;;;2.30;;
32250;SDS011;41295;48.518;9.206;2022-09-11T03:31:20;4.82;;;2.10;;
32250;SDS011;41295;48.518;9.206;2022-09-11T03:33:23;7.95;;;2.05;;
32250;SDS011;41295;48.518;9.206;2022-09-11T03:35:27;4.45;;;2.28;;
32250;SDS011;41295;48.518;9.206;2022-09-11T03:37:30;7.28;;;2.35;;
32250;SDS011;41295;48.518;9.206;2022-09-11T03:39:32;7.55;;;2.28;;
32250;SDS011;41295;48.518;9.206;2022-09-11T03:41:35;7.13;;;2.13;;
32250;SDS011;41295;48.518;9.206;2022-09-11T03:43:38;8.02;;;2.47;;
32250;SDS011;41295;48.518;9.206;2022-09-11T03:45:40;7.55;;;2.17;;
32250;SDS011;41295;48.518;9.206;2022-09-11T03:47:44;6.80;;;2.42;;
32250;SDS011;41295;48.518;9.206;2022-09-11T03:49:47;7.22;;;2.20;;
32250;SDS011;41295;48.518;9.206;2022-09-11T03:51:51;7.93;;;2.47;;
32250;SDS011;41295;48.518;9.206;2022-09-11T03:53:53;8.75;;;2.60;;
32250;SDS011;41295;48.518;9.206;2022-09-11T03:55:56;6.00;;;2.17;;
32250;SDS011;41295;48.518;9.206;2022-09-11T03:57:58;6.90;;;2.47;;
32250;SDS011;41295;48.518;9.206;2022-09-11T04:00:02;5.53;;;2.38;;
32250;SDS011;41295;48.518;9.206;2022-09-11T04:02:06;5.68;;;2.20;;
32250;SDS011;41295;48.518;9.206;2022-09-11T04:04:09;6.70;;;2.10;;
32250;SDS011;41295;48.518;9.206;2022-09-11T04:06:11;6.50;;;2.20;;
32250;SDS011;41295;48.518;9.206;2022-09-11T04:08:15;5.32;;;2.10;;
32250;SDS011;41295;48.518;9.206;2022-09-11T04:10:18;6.70;;;2.58;;
32250;SDS011;41295;48.518;9.206;2022-09-11T04:12:21;4.90;;;2.10;;
32250;SDS011;41295;48.518;9.206;2022-09-11T04:14:24;9.57;;;2.60;;
32250;SDS011;41295;48.518;9.206;2022-09-11T04:16:26;6.15;;;2.70;;
32250;SDS011;41295;48.518;9.206;2022-09-11T04:18:33;11.05;;;2.40;;
32250;SDS011;41295;48.518;9.206;2022-09-11T04:20:38;5.68;;;2.65;;
32250;SDS011;41295;48.518;9.206;2022-09-11T04:22:40;5.65;;;2.40;;
32250;SDS011;41295;48.518;9.206;2022-09-11T04:24:44;8.70;;;2.63;;
32250;SDS011;41295;48.518;9.206;2022-09-11T04:26:47;6.82;;;2.20;;
32250;SDS011;41295;48.518;9.206;2022-09-11T04:28:50;8.82;;;2.50;;
32250;SDS011;41295;48.518;9.206;2022-09-11T04:30:52;5.90;;;2.20;;
32250;SDS011;41295;48.518;9.206;2022-09-11T04:32:57;7.45;;;2.78;;
32250;SDS011;41295;48.518;9.206;2022-09-11T04:34:59;5.60;;;2.45;;
32250;SDS011;41295;48.518;9.206;2022-09-11T04:37:03;5.75;;;2.83;;
32250;SDS011;41295;48.518;9.206;2022-09-11T04:39:06;5.88;;;2.50;;
32250;SDS011;41295;48.518;9.206;2022-09-11T04:41:10;13.98;;;3.05;;
32250;SDS011;41295;48.518;9.206;2022-09-11T04:43:12;4.63;;;2.33;;
32250;SDS011;41295;48.518;9.206;2022-09-11T04:45:17;5.65;;;2.35;;
32250;SDS011;41295;48.518;9.206;2022-09-11T04:47:20;5.20;;;2.22;;
32250;SDS011;41295;48.518;9.206;2022-09-11T04:49:22;6.28;;;2.35;;
32250;SDS011;41295;48.518;9.206;2022-09-11T04:51:26;4.95;;;2.30;;
32250;SDS011;41295;48.518;9.206;2022-09-11T04:53:30;5.90;;;2.55;;
32250;SDS011;41295;48.518;9.206;2022-09-11T04:55:33;6.10;;;2.40;;
32250;SDS011;41295;48.518;9.206;2022-09-11T04:57:37;6.03;;;2.10;;
32250;SDS011;41295;48.518;9.206;2022-09-11T04:59:39;8.07;;;2.50;;
32250;SDS011;41295;48.518;9.206;2022-09-11T05:01:42;5.28;;;2.10;;
32250;SDS011;41295;48.518;9.206;2022-09-11T05:03:46;7.20;;;2.08;;
32250;SDS011;41295;48.518;9.206;2022-09-11T05:05:49;10.15;;;2.60;;
32250;SDS011;41295;48.518;9.206;2022-09-11T05:07:52;2.85;;;2.13;;
32250;SDS011;41295;48.518;9.206;2022-09-11T05:09:54;6.72;;;2.10;;
32250;SDS011;41295;48.518;9.206;2022-09-11T05:11:57;4.38;;;2.13;;
32250;SDS011;41295;48.518;9.206;2022-09-11T05:14:01;4.72;;;1.95;;
32250;SDS011;41295;48.518;9.206;2022-09-11T05:16:04;5.50;;;1.80;;
32250;SDS011;41295;48.518;9.206;2022-09-11T05:18:09;2.75;;;1.73;;
32250;SDS011;41295;48.518;9.206;2022-09-11T05:20:12;4.15;;;1.92;;
32250;SDS011;41295;48.518;9.206;2022-09-11T05:22:16;3.33;;;1.70;;
32250;SDS011;41295;48.518;9.206;2022-09-11T05:24:19;4.68;;;1.85;;
32250;SDS011;41295;48.518;9.206;2022-09-11T05:26:22;4.30;;;2.08;;
32250;SDS011;41295;48.518;9.206;2022-09-11T05:28:26;2.35;;;1.85;;
32250;SDS011;41295;48.518;9.206;2022-09-11T05:30:30;8.45;;;2.15;;
32250;SDS011;41295;48.518;9.206;2022-09-11T05:32:33;4.13;;;1.90;;
32250;SDS011;41295;48.518;9.206;2022-09-11T05:34:35;4.40;;;1.52;;
32250;SDS011;41295;48.518;9.206;2022-09-11T05:36:38;3.67;;;1.52;;
32250;SDS011;41295;48.518;9.206;2022-09-11T05:38:41;2.85;;;1.70;;
32250;SDS011;41295;48.518;9.206;2022-09-11T05:40:44;5.47;;;1.77;;
32250;SDS011;41295;48.518;9.206;2022-09-11T05:42:48;4.70;;;1.92;;
32250;SDS011;41295;48.518;9.206;2022-09-11T05:44:51;5.72;;;1.67;;
32250;SDS011;41295;48.518;9.206;2022-09-11T05:46:54;4.15;;;1.95;;
32250;SDS011;41295;48.518;9.206;2022-09-11T05:48:58;2.80;;;1.70;;
32250;SDS011;41295;48.518;9.206;2022-09-11T05:51:01;6.03;;;1.77;;
32250;SDS011;41295;48.518;9.206;2022-09-11T05:53:07;3.97;;;2.45;;
32250;SDS011;41295;48.518;9.206;2022-09-11T05:55:09;5.57;;;1.90;;
32250;SDS011;41295;48.518;9.206;2022-09-11T05:57:12;3.25;;;1.80;;
32250;SDS011;41295;48.518;9.206;2022-09-11T05:59:14;5.50;;;2.45;;
32250;SDS011;41295;48.518;9.206;2022-09-11T06:01:18;3.97;;;1.92;;
32250;SDS011;41295;48.518;9.206;2022-09-11T06:03:23;5.10;;;1.92;;
32250;SDS011;41295;48.518;9.206;2022-09-11T06:05:26;4.22;;;1.90;;
32250;SDS011;41295;48.518;9.206;2022-09-11T06:07:29;5.20;;;1.95;;
32250;SDS011;41295;48.518;9.206;2022-09-11T06:09:31;7.57;;;1.60;;
32250;SDS011;41295;48.518;9.206;2022-09-11T06:11:34;2.45;;;1.88;;
32250;SDS011;41295;48.518;9.206;2022-09-11T06:13:38;5.15;;;1.65;;
32250;SDS011;41295;48.518;9.206;2022-09-11T06:15:43;2.95;;;1.70;;
32250;SDS011;41295;48.518;9.206;2022-09-11T06:17:47;8.98;;;2.03;;
32250;SDS011;41295;48.518;9.206;2022-09-11T06:19:51;6.18;;;2.67;;
32250;SDS011;41295;48.518;9.206;2022-09-11T06:21:54;4.18;;;1.95;;
32250;SDS011;41295;48.518;9.206;2022-09-11T06:23:57;5.40;;;1.90;;
32250;SDS011;41295;48.518;9.206;2022-09-11T06:26:03;5.22;;;1.85;;
32250;SDS011;41295;48.518;9.206;2022-09-11T06:28:06;4.88;;;1.70;;
32250;SDS011;41295;48.518;9.206;2022-09-11T06:30:09;4.55;;;1.80;;
32250;SDS011;41295;48.518;9.206;2022-09-11T06:32:13;3.33;;;1.50;;
32250;SDS011;41295;48.518;9.206;2022-09-11T06:34:16;2.42;;;1.63;;
32250;SDS011;41295;48.518;9.206;2022-09-11T06:36:21;6.40;;;2.00;;
32250;SDS011;41295;48.518;9.206;2022-09-11T06:38:27;4.20;;;1.95;;
32250;SDS011;41295;48.518;9.206;2022-09-11T06:40:29;3.75;;;1.88;;
32250;SDS011;41295;48.518;9.206;2022-09-11T06:42:32;4.10;;;2.10;;
32250;SDS011;41295;48.518;9.206;2022-09-11T06:44:34;3.03;;;1.60;;
32250;SDS011;41295;48.518;9.206;2022-09-11T06:46:37;4.47;;;1.83;;
32250;SDS011;41295;48.518;9.206;2022-09-11T06:48:41;5.10;;;1.73;;
32250;SDS011;41295;48.518;9.206;2022-09-11T06:50:45;4.90;;;2.00;;
32250;SDS011;41295;48.518;9.206;2022-09-11T06:52:49;7.13;;;2.05;;
32250;SDS011;41295;48.518;9.206;2022-09-11T06:54:52;3.85;;;1.95;;
32250;SDS011;41295;48.518;9.206;2022-09-11T06:56:55;3.83;;;1.70;;
32250;SDS011;41295;48.518;9.206;2022-09-11T06:58:57;5.00;;;1.80;;
32250;SDS011;41295;48.518;9.206;2022-09-11T07:01:00;4.90;;;1.60;;
32250;SDS011;41295;48.518;9.206;2022-09-11T07:03:04;4.25;;;2.00;;
32250;SDS011;41295;48.518;9.206;2022-09-11T07:05:07;3.72;;;1.77;;
32250;SDS011;41295;48.518;9.206;2022-09-11T07:07:11;5.72;;;1.70;;
32250;SDS011;41295;48.518;9.206;2022-09-11T07:09:15;3.50;;;2.00;;
32250;SDS011;41295;48.518;9.206;2022-09-11T07:11:17;2.83;;;1.70;;
32250;SDS011;41295;48.518;9.206;2022-09-11T07:13:21;4.53;;;2.20;;
32250;SDS011;41295;48.518;9.206;2022-09-11T07:15:24;4.72;;;1.80;;
32250;SDS011;41295;48.518;9.206;2022-09-11T07:17:27;5.03;;;2.17;;
32250;SDS011;41295;48.518;9.206;2022-09-11T07:19:29;2.40;;;1.90;;
32250;SDS011;41295;48.518;9.206;2022-09-11T07:21:33;3.60;;;1.88;;
32250;SDS011;41295;48.518;9.206;2022-09-11T07:23:37;5.03;;;1.95;;
32250;SDS011;41295;48.518;9.206;2022-09-11T07:25:42;3.72;;;1.80;;
32250;SDS011;41295;48.518;9.206;2022-09-11T07:27:45;4.00;;;1.83;;
32250;SDS011;41295;48.518;9.206;2022-09-11T07:29:48;4.18;;;1.92;;
32250;SDS011;41295;48.518;9.206;2022-09-11T07:31:50;3.20;;;1.98;;
32250;SDS011;41295;48.518;9.206;2022-09-11T07:33:56;4.20;;;1.83;;
32250;SDS011;41295;48.518;9.206;2022-09-11T07:35:58;4.47;;;2.10;;
32250;SDS011;41295;48.518;9.206;2022-09-11T07:38:01;2.95;;;1.73;;
32250;SDS011;41295;48.518;9.206;2022-09-11T07:40:04;4.55;;;1.88;;
32250;SDS011;41295;48.518;9.206;2022-09-11T07:42:08;5.97;;;1.90;;
32250;SDS011;41295;48.518;9.206;2022-09-11T07:44:12;3.60;;;1.65;;
32250;SDS011;41295;48.518;9.206;2022-09-11T07:46:15;4.88;;;1.88;;
32250;SDS011;41295;48.518;9.206;2022-09-11T07:48:18;4.82;;;1.65;;
32250;SDS011;41295;48.518;9.206;2022-09-11T07:50:20;3.65;;;1.60;;
32250;SDS011;41295;48.518;9.206;2022-09-11T07:52:24;4.97;;;1.98;;
32250;SDS011;41295;48.518;9.206;2022-09-11T07:54:27;2.97;;;1.55;;
32250;SDS011;41295;48.518;9.206;2022-09-11T07:56:30;4.28;;;1.60;;
32250;SDS011;41295;48.518;9.206;2022-09-11T07:58:36;3.08;;;1.80;;
32250;SDS011;41295;48.518;9.206;2022-09-11T08:00:40;4.53;;;1.77;;
32250;SDS011;41295;48.518;9.206;2022-09-11T08:02:43;6.68;;;1.60;;
32250;SDS011;41295;48.518;9.206;2022-09-11T08:04:45;2.38;;;1.45;;
32250;SDS011;41295;48.518;9.206;2022-09-11T08:06:48;6.88;;;1.90;;
32250;SDS011;41295;48.518;9.206;2022-09-11T08:08:51;3.10;;;1.45;;
32250;SDS011;41295;48.518;9.206;2022-09-11T08:10:54;3.47;;;2.00;;
32250;SDS011;41295;48.518;9.206;2022-09-11T08:12:57;2.53;;;1.67;;
32250;SDS011;41295;48.518;9.206;2022-09-11T08:15:02;2.05;;;1.60;;
32250;SDS011;41295;48.518;9.206;2022-09-11T08:17:04;4.45;;;1.65;;
32250;SDS011;41295;48.518;9.206;2022-09-11T08:19:13;3.65;;;1.58;;
32250;SDS011;41295;48.518;9.206;2022-09-11T08:21:18;2.60;;;1.60;;
32250;SDS011;41295;48.518;9.206;2022-09-11T08:23:21;2.35;;;1.70;;
32250;SDS011;41295;48.518;9.206;2022-09-11T08:25:24;7.68;;;1.58;;
32250;SDS011;41295;48.518;9.206;2022-09-11T08:27:29;3.53;;;1.45;;
32250;SDS011;41295;48.518;9.206;2022-09-11T08:29:32;2.92;;;1.60;;
32250;SDS011;41295;48.518;9.206;2022-09-11T08:31:36;2.50;;;1.50;;
32250;SDS011;41295;48.518;9.206;2022-09-11T08:33:38;1.48;;;1.30;;
32250;SDS011;41295;48.518;9.206;2022-09-11T08:35:41;5.35;;;1.70;;
32250;SDS011;41295;48.518;9.206;2022-09-11T08:37:45;2.58;;;1.55;;
32250;SDS011;41295;48.518;9.206;2022-09-11T08:39:54;3.22;;;1.35;;
32250;SDS011;41295;48.518;9.206;2022-09-11T08:41:57;2.80;;;1.50;;
32250;SDS011;41295;48.518;9.206;2022-09-11T08:44:04;2.22;;;1.60;;
32250;SDS011;41295;48.518;9.206;2022-09-11T08:46:14;5.38;;;1.88;;
32250;SDS011;41295;48.518;9.206;2022-09-11T08:48:18;4.97;;;2.40;;
32250;SDS011;41295;48.518;9.206;2022-09-11T08:50:31;3.38;;;1.83;;
32250;SDS011;41295;48.518;9.206;2022-09-11T08:52:37;4.53;;;1.80;;
32250;SDS011;41295;48.518;9.206;2022-09-11T08:54:41;3.83;;;2.05;;
32250;SDS011;41295;48.518;9.206;2022-09-11T08:56:47;2.42;;;2.00;;
32250;SDS011;41295;48.518;9.206;2022-09-11T08:58:59;4.03;;;2.13;;
32250;SDS011;41295;48.518;9.206;2022-09-11T09:01:17;2.15;;;1.95;;
32250;SDS011;41295;48.518;9.206;2022-09-11T09:03:35;2.30;;;2.10;;
32250;SDS011;41295;48.518;9.206;2022-09-11T09:05:54;5.82;;;2.10;;
32250;SDS011;41295;48.518;9.206;2022-09-11T09:08:04;9.88;;;2.65;;
32250;SDS011;41295;48.518;9.206;2022-09-11T09:10:25;2.58;;;2.30;;
32250;SDS011;41295;48.518;9.206;2022-09-11T09:12:39;7.32;;;2.90;;
32250;SDS011;41295;48.518;9.206;2022-09-11T09:14:57;6.72;;;2.60;;
32250;SDS011;41295;48.518;9.206;2022-09-11T09:17:10;5.78;;;3.38;;
32250;SDS011;41295;48.518;9.206;2022-09-11T09:19:19;4.88;;;2.80;;
32250;SDS011;41295;48.518;9.206;2022-09-11T09:21:28;4.20;;;2.38;;
32250;SDS011;41295;48.518;9.206;2022-09-11T09:23:37;3.78;;;2.85;;
32250;SDS011;41295;48.518;9.206;2022-09-11T09:25:44;4.72;;;3.92;;
32250;SDS011;41295;48.518;9.206;2022-09-11T09:27:49;5.63;;;3.42;;
32250;SDS011;41295;48.518;9.206;2022-09-11T09:29:57;7.43;;;3.67;;
32250;SDS011;41295;48.518;9.206;2022-09-11T09:32:06;4.18;;;2.70;;
32250;SDS011;41295;48.518;9.206;2022-09-11T09:34:15;7.38;;;3.00;;
32250;SDS011;41295;48.518;9.206;2022-09-11T09:36:23;5.60;;;2.88;;
32250;SDS011;41295;48.518;9.206;2022-09-11T09:38:31;6.25;;;3.17;;
32250;SDS011;41295;48.518;9.206;2022-09-11T09:40:34;3.67;;;2.47;;
32250;SDS011;41295;48.518;9.206;2022-09-11T09:42:45;6.45;;;2.70;;
32250;SDS011;41295;48.518;9.206;2022-09-11T09:45:02;4.80;;;2.33;;
32250;SDS011;41295;48.518;9.206;2022-09-11T09:47:37;2.50;;;2.30;;
32250;SDS011;41295;48.518;9.206;2022-09-11T09:49:44;5.40;;;2.92;;
32250;SDS011;41295;48.518;9.206;2022-09-11T09:51:49;3.35;;;2.42;;
32250;SDS011;41295;48.518;9.206;2022-09-11T09:53:55;3.88;;;3.22;;
32250;SDS011;41295;48.518;9.206;2022-09-11T09:56:02;3.78;;;2.10;;
32250;SDS011;41295;48.518;9.206;2022-09-11T09:58:06;2.80;;;2.28;;
32250;SDS011;41295;48.518;9.206;2022-09-11T10:00:12;4.32;;;2.47;;
32250;SDS011;41295;48.518;9.206;2022-09-11T10:02:29;5.22;;;2.83;;
32250;SDS011;41295;48.518;9.206;2022-09-11T10:04:39;7.05;;;3.15;;
32250;SDS011;41295;48.518;9.206;2022-09-11T10:06:41;4.88;;;3.08;;
32250;SDS011;41295;48.518;9.206;2022-09-11T10:08:47;6.68;;;2.55;;
32250;SDS011;41295;48.518;9.206;2022-09-11T10:10:52;10.50;;;5.45;;
32250;SDS011;41295;48.518;9.206;2022-09-11T10:12:58;5.53;;;3.20;;
32250;SDS011;41295;48.518;9.206;2022-09-11T10:15:19;4.03;;;2.93;;
32250;SDS011;41295;48.518;9.206;2022-09-11T10:17:29;3.35;;;2.80;;
32250;SDS011;41295;48.518;9.206;2022-09-11T10:19:34;2.75;;;2.55;;
32250;SDS011;41295;48.518;9.206;2022-09-11T10:21:39;4.97;;;2.90;;
32250;SDS011;41295;48.518;9.206;2022-09-11T10:23:43;8.13;;;3.22;;
32250;SDS011;41295;48.518;9.206;2022-09-11T10:25:49;3.58;;;2.80;;
32250;SDS011;41295;48.518;9.206;2022-09-11T10:27:58;5.82;;;3.20;;
32250;SDS011;41295;48.518;9.206;2022-09-11T10:30:04;3.70;;;3.33;;
32250;SDS011;41295;48.518;9.206;2022-09-11T10:32:12;4.13;;;3.05;;
32250;SDS011;41295;48.518;9.206;2022-09-11T10:34:19;6.57;;;4.07;;
32250;SDS011;41295;48.518;9.206;2022-09-11T10:36:25;5.90;;;3.97;;
32250;SDS011;41295;48.518;9.206;2022-09-11T10:38:29;4.00;;;3.55;;
32250;SDS011;41295;48.518;9.206;2022-09-11T10:42:49;6.32;;;3.88;;
32250;SDS011;41295;48.518;9.206;2022-09-11T10:44:57;4.47;;;3.38;;
32250;SDS011;41295;48.518;9.206;2022-09-11T10:47:12;5.72;;;3.50;;
32250;SDS011;41295;48.518;9.206;2022-09-11T10:49:18;6.45;;;3.50;;
32250;SDS011;41295;48.518;9.206;2022-09-11T10:51:22;6.00;;;3.70;;
32250;SDS011;41295;48.518;9.206;2022-09-11T10:53:26;5.40;;;3.92;;
32250;SDS011;41295;48.518;9.206;2022-09-11T10:55:29;5.15;;;3.60;;
32250;SDS011;41295;48.518;9.206;2022-09-11T10:57:37;4.07;;;3.70;;
32250;SDS011;41295;48.518;9.206;2022-09-11T10:59:52;6.47;;;4.00;;
32250;SDS011;41295;48.518;9.206;2022-09-11T11:02:06;9.88;;;4.10;;
32250;SDS011;41295;48.518;9.206;2022-09-11T11:04:20;5.85;;;4.00;;
32250;SDS011;41295;48.518;9.206;2022-09-11T11:06:28;5.75;;;4.50;;
32250;SDS011;41295;48.518;9.206;2022-09-11T11:11:19;5.47;;;4.53;;
32250;SDS011;41295;48.518;9.206;2022-09-11T11:13:36;7.78;;;4.47;;
32250;SDS011;41295;48.518;9.206;2022-09-11T11:15:55;7.18;;;5.25;;
32250;SDS011;41295;48.518;9.206;2022-09-11T11:18:11;10.30;;;4.68;;
32250;SDS011;41295;48.518;9.206;2022-09-11T11:20:25;6.43;;;5.63;;
32250;SDS011;41295;48.518;9.206;2022-09-11T11:22:43;8.20;;;5.43;;
32250;SDS011;41295;48.518;9.206;2022-09-11T11:24:59;6.93;;;5.40;;
32250;SDS011;41295;48.518;9.206;2022-09-11T11:27:19;8.40;;;4.82;;
32250;SDS011;41295;48.518;9.206;2022-09-11T11:29:50;13.18;;;4.63;;
32250;SDS011;41295;48.518;9.206;2022-09-11T11:32:11;7.53;;;5.10;;
32250;SDS011;41295;48.518;9.206;2022-09-11T11:36:49;6.93;;;5.00;;
32250;SDS011;41295;48.518;9.206;2022-09-11T11:38:56;7.03;;;4.88;;
32250;SDS011;41295;48.518;9.206;2022-09-11T11:41:03;7.28;;;4.75;;
32250;SDS011;41295;48.518;9.206;2022-09-11T11:43:10;6.32;;;4.35;;
32250;SDS011;41295;48.518;9.206;2022-09-11T11:45:18;4.60;;;4.20;;
32250;SDS011;41295;48.518;9.206;2022-09-11T11:47:27;6.95;;;4.50;;
32250;SDS011;41295;48.518;9.206;2022-09-11T11:49:37;6.30;;;4.82;;
32250;SDS011;41295;48.518;9.206;2022-09-11T11:51:50;5.03;;;4.13;;
32250;SDS011;41295;48.518;9.206;2022-09-11T11:53:58;6.97;;;4.72;;
32250;SDS011;41295;48.518;9.206;2022-09-11T11:56:06;6.78;;;4.70;;
32250;SDS011;41295;48.518;9.206;2022-09-11T11:58:18;5.63;;;4.47;;
32250;SDS011;41295;48.518;9.206;2022-09-11T12:00:28;7.57;;;4.90;;
32250;SDS011;41295;48.518;9.206;2022-09-11T12:02:37;5.10;;;4.60;;
32250;SDS011;41295;48.518;9.206;2022-09-11T12:04:46;5.70;;;4.30;;
32250;SDS011;41295;48.518;9.206;2022-09-11T12:06:55;7.57;;;4.78;;
32250;SDS011;41295;48.518;9.206;2022-09-11T12:09:04;5.00;;;4.20;;
32250;SDS011;41295;48.518;9.206;2022-09-11T12:11:10;5.68;;;4.80;;
32250;SDS011;41295;48.518;9.206;2022-09-11T12:13:16;6.10;;;4.30;;
32250;SDS011;41295;48.518;9.206;2022-09-11T12:15:21;10.35;;;4.43;;
32250;SDS011;41295;48.518;9.206;2022-09-11T12:17:25;6.50;;;4.38;;
32250;SDS011;41295;48.518;9.206;2022-09-11T12:19:31;5.07;;;4.55;;
32250;SDS011;41295;48.518;9.206;2022-09-11T12:21:37;4.95;;;4.10;;
32250;SDS011;41295;48.518;9.206;2022-09-11T12:26:16;6.88;;;4.50;;
32250;SDS011;41295;48.518;9.206;2022-09-11T12:28:21;5.30;;;4.45;;
32250;SDS011;41295;48.518;9.206;2022-09-11T12:30:27;5.50;;;4.53;;
32250;SDS011;41295;48.518;9.206;2022-09-11T12:32:43;4.22;;;3.83;;
32250;SDS011;41295;48.518;9.206;2022-09-11T12:34:58;4.88;;;3.95;;
32250;SDS011;41295;48.518;9.206;2022-09-11T12:37:05;6.97;;;4.00;;
32250;SDS011;41295;48.518;9.206;2022-09-11T12:39:16;4.20;;;3.80;;
32250;SDS011;41295;48.518;9.206;2022-09-11T12:41:25;8.05;;;4.95;;
32250;SDS011;41295;48.518;9.206;2022-09-11T12:45:48;4.30;;;3.90;;
32250;SDS011;41295;48.518;9.206;2022-09-11T12:47:51;6.57;;;3.95;;
32250;SDS011;41295;48.518;9.206;2022-09-11T12:49:54;7.55;;;4.38;;
32250;SDS011;41295;48.518;9.206;2022-09-11T12:52:16;5.35;;;3.85;;
32250;SDS011;41295;48.518;9.206;2022-09-11T12:54:26;5.68;;;3.60;;
32250;SDS011;41295;48.518;9.206;2022-09-11T12:56:31;5.70;;;4.03;;
32250;SDS011;41295;48.518;9.206;2022-09-11T12:58:36;7.40;;;4.07;;
32250;SDS011;41295;48.518;9.206;2022-09-11T13:00:42;4.63;;;3.88;;